Valdez Pioneer Field
PAVD : now visible

Airfield :











YOU CAN JOIN US ON...

 
LOGIN :

Register | Disclaimer

   EN    FR    IT 

 









Legend :    VFR   Marginal VFR   IFR   Intensive IFR   Very Intensive IFR
Visi :
Ceiling :
>= 8 km
>= 3000ft
5 to 8 km
1000 to 3000 ft
1500m to 5 km
500 to 1000 ft
800 to 1500m
200 to 500 ft
< 800m
< 200 ft
Symbols :   Thunderstorms  Fog  Heavy snow  Heavy precipitations  Wind > 20 kt






- Airport Elevation : 121 ft
- IATA code : VDZ


PAVD - Valdez Pioneer Field

CURRENT METAR :
  • 241156Z AUTO 05011G31KT 10SM CLR M05/M16 A3039 RMK AO2 PK WND 07031/1149 WSHFT 1129 SLP290 70003 T10501161 11028 21056 53034 FZRANO

EXPIRED METARs :
  • 241056Z AUTO 06016G26KT 10SM CLR M04/M16 A3035 RMK AO2 PK WND 06028/1036 SLP276 T10441156 FZRANO

TAF PAVD
Valid from the 24 at 12:00 until the 25 at 12:00 UTC


241131Z 2412/2512 06016G26KT P6SM SKC
FM250100 09010KT P6SM SKC



MET'MAP, your aeronautical weather chart ! - Copyright ORBIFLY December 2007 - Disclaimer

ORBIFLY MET'MAP TEAM :

Programming & Development : Alexandra Zaïnal
Concept & original design : Baudouin d'Aumeries
Assistance for programming : Marc-Olivier Méhu
Technical & hardware support : Manuel Goepfert

Contact : metmap@orbifly.com




SOURCES & CREDITS :

   NOAA       Earth
Advisory